sensor_id;sensor_type;location;lat;lon;timestamp;P1;durP1;ratioP1;P2;durP2;ratioP2
28266;SDS011;15525;45.568;5.448;2023-02-18T00:02:05;29.80;;;15.93;;
28266;SDS011;15525;45.568;5.448;2023-02-18T00:04:31;27.30;;;14.98;;
28266;SDS011;15525;45.568;5.448;2023-02-18T00:06:56;26.85;;;15.45;;
28266;SDS011;15525;45.568;5.448;2023-02-18T00:09:22;28.65;;;16.25;;
28266;SDS011;15525;45.568;5.448;2023-02-18T00:11:47;29.17;;;16.63;;
28266;SDS011;15525;45.568;5.448;2023-02-18T00:14:13;34.05;;;19.77;;
28266;SDS011;15525;45.568;5.448;2023-02-18T00:16:41;34.08;;;19.35;;
28266;SDS011;15525;45.568;5.448;2023-02-18T00:19:08;32.25;;;18.65;;
28266;SDS011;15525;45.568;5.448;2023-02-18T00:21:36;31.30;;;18.23;;
28266;SDS011;15525;45.568;5.448;2023-02-18T00:24:02;31.55;;;18.30;;
28266;SDS011;15525;45.568;5.448;2023-02-18T00:26:29;28.70;;;17.55;;
28266;SDS011;15525;45.568;5.448;2023-02-18T00:28:54;31.10;;;17.35;;
28266;SDS011;15525;45.568;5.448;2023-02-18T00:31:21;28.00;;;16.63;;
28266;SDS011;15525;45.568;5.448;2023-02-18T00:33:49;28.42;;;16.38;;
28266;SDS011;15525;45.568;5.448;2023-02-18T00:36:15;27.52;;;17.08;;
28266;SDS011;15525;45.568;5.448;2023-02-18T00:38:43;26.40;;;15.40;;
28266;SDS011;15525;45.568;5.448;2023-02-18T00:41:10;29.90;;;16.58;;
28266;SDS011;15525;45.568;5.448;2023-02-18T00:43:35;26.27;;;15.82;;
28266;SDS011;15525;45.568;5.448;2023-02-18T00:46:00;27.75;;;15.80;;
28266;SDS011;15525;45.568;5.448;2023-02-18T00:48:26;25.10;;;15.10;;
28266;SDS011;15525;45.568;5.448;2023-02-18T00:50:51;28.38;;;15.55;;
28266;SDS011;15525;45.568;5.448;2023-02-18T00:53:17;28.40;;;15.68;;
28266;SDS011;15525;45.568;5.448;2023-02-18T00:55:43;25.23;;;15.35;;
28266;SDS011;15525;45.568;5.448;2023-02-18T00:58:14;28.65;;;16.13;;
28266;SDS011;15525;45.568;5.448;2023-02-18T01:00:40;27.15;;;16.35;;
28266;SDS011;15525;45.568;5.448;2023-02-18T01:03:06;31.00;;;17.52;;
28266;SDS011;15525;45.568;5.448;2023-02-18T01:05:32;27.52;;;16.67;;
28266;SDS011;15525;45.568;5.448;2023-02-18T01:07:57;31.63;;;16.95;;
28266;SDS011;15525;45.568;5.448;2023-02-18T01:10:23;30.77;;;17.23;;
28266;SDS011;15525;45.568;5.448;2023-02-18T01:12:49;28.60;;;16.05;;
28266;SDS011;15525;45.568;5.448;2023-02-18T01:15:14;29.45;;;17.95;;
28266;SDS011;15525;45.568;5.448;2023-02-18T01:17:41;29.95;;;18.27;;
28266;SDS011;15525;45.568;5.448;2023-02-18T01:20:07;34.95;;;18.98;;
28266;SDS011;15525;45.568;5.448;2023-02-18T01:22:32;40.38;;;21.52;;
28266;SDS011;15525;45.568;5.448;2023-02-18T01:24:58;38.95;;;22.08;;
28266;SDS011;15525;45.568;5.448;2023-02-18T01:27:23;38.33;;;21.05;;
28266;SDS011;15525;45.568;5.448;2023-02-18T01:29:49;41.08;;;22.73;;
28266;SDS011;15525;45.568;5.448;2023-02-18T01:32:14;38.78;;;22.02;;
28266;SDS011;15525;45.568;5.448;2023-02-18T01:34:40;41.97;;;22.08;;
28266;SDS011;15525;45.568;5.448;2023-02-18T01:37:05;43.55;;;24.05;;
28266;SDS011;15525;45.568;5.448;2023-02-18T01:39:31;40.50;;;22.48;;
28266;SDS011;15525;45.568;5.448;2023-02-18T01:41:56;41.53;;;23.63;;
28266;SDS011;15525;45.568;5.448;2023-02-18T01:44:23;42.60;;;24.33;;
28266;SDS011;15525;45.568;5.448;2023-02-18T01:46:51;45.35;;;24.40;;
28266;SDS011;15525;45.568;5.448;2023-02-18T01:49:27;46.08;;;25.77;;
28266;SDS011;15525;45.568;5.448;2023-02-18T01:52:08;44.72;;;24.90;;
28266;SDS011;15525;45.568;5.448;2023-02-18T01:54:44;44.60;;;25.65;;
28266;SDS011;15525;45.568;5.448;2023-02-18T01:57:17;44.97;;;24.98;;
28266;SDS011;15525;45.568;5.448;2023-02-18T01:59:49;45.00;;;25.00;;
28266;SDS011;15525;45.568;5.448;2023-02-18T02:02:28;47.30;;;24.73;;
28266;SDS011;15525;45.568;5.448;2023-02-18T02:04:56;46.42;;;25.85;;
28266;SDS011;15525;45.568;5.448;2023-02-18T02:07:22;46.75;;;26.65;;
28266;SDS011;15525;45.568;5.448;2023-02-18T02:09:50;48.15;;;26.60;;
28266;SDS011;15525;45.568;5.448;2023-02-18T02:31:26;46.42;;;23.98;;
28266;SDS011;15525;45.568;5.448;2023-02-18T02:39:30;36.53;;;22.38;;
28266;SDS011;15525;45.568;5.448;2023-02-18T02:42:28;41.10;;;24.05;;
28266;SDS011;15525;45.568;5.448;2023-02-18T02:47:59;38.10;;;22.17;;
28266;SDS011;15525;45.568;5.448;2023-02-18T02:50:42;41.75;;;22.98;;
28266;SDS011;15525;45.568;5.448;2023-02-18T02:53:21;42.28;;;23.40;;
28266;SDS011;15525;45.568;5.448;2023-02-18T02:55:51;39.65;;;22.90;;
28266;SDS011;15525;45.568;5.448;2023-02-18T02:58:18;38.00;;;22.10;;
28266;SDS011;15525;45.568;5.448;2023-02-18T03:11:37;36.72;;;20.98;;
28266;SDS011;15525;45.568;5.448;2023-02-18T03:14:09;40.58;;;21.52;;
28266;SDS011;15525;45.568;5.448;2023-02-18T03:16:50;42.28;;;22.98;;
28266;SDS011;15525;45.568;5.448;2023-02-18T03:24:47;34.65;;;20.20;;
28266;SDS011;15525;45.568;5.448;2023-02-18T03:27:21;35.13;;;20.52;;
28266;SDS011;15525;45.568;5.448;2023-02-18T03:29:55;32.63;;;19.13;;
28266;SDS011;15525;45.568;5.448;2023-02-18T03:34:54;35.13;;;19.48;;
28266;SDS011;15525;45.568;5.448;2023-02-18T03:37:25;33.20;;;19.17;;
28266;SDS011;15525;45.568;5.448;2023-02-18T03:39:53;31.35;;;19.40;;
28266;SDS011;15525;45.568;5.448;2023-02-18T03:42:27;33.35;;;19.58;;
28266;SDS011;15525;45.568;5.448;2023-02-18T03:44:53;33.25;;;19.35;;
28266;SDS011;15525;45.568;5.448;2023-02-18T03:47:19;35.40;;;19.52;;
28266;SDS011;15525;45.568;5.448;2023-02-18T03:49:44;33.55;;;18.95;;
28266;SDS011;15525;45.568;5.448;2023-02-18T03:52:10;27.77;;;18.67;;
28266;SDS011;15525;45.568;5.448;2023-02-18T03:54:35;32.25;;;19.38;;
28266;SDS011;15525;45.568;5.448;2023-02-18T03:57:01;30.90;;;19.13;;
28266;SDS011;15525;45.568;5.448;2023-02-18T03:59:26;29.05;;;18.70;;
28266;SDS011;15525;45.568;5.448;2023-02-18T04:01:52;32.72;;;19.80;;
28266;SDS011;15525;45.568;5.448;2023-02-18T04:04:17;29.05;;;17.88;;
28266;SDS011;15525;45.568;5.448;2023-02-18T04:06:42;33.38;;;19.48;;
28266;SDS011;15525;45.568;5.448;2023-02-18T04:09:08;31.05;;;18.13;;
28266;SDS011;15525;45.568;5.448;2023-02-18T04:11:37;31.17;;;17.00;;
28266;SDS011;15525;45.568;5.448;2023-02-18T04:14:04;26.35;;;17.35;;
28266;SDS011;15525;45.568;5.448;2023-02-18T04:16:29;27.15;;;16.60;;
28266;SDS011;15525;45.568;5.448;2023-02-18T04:18:55;27.08;;;17.45;;
28266;SDS011;15525;45.568;5.448;2023-02-18T04:21:21;29.42;;;18.60;;
28266;SDS011;15525;45.568;5.448;2023-02-18T04:23:46;27.20;;;18.00;;
28266;SDS011;15525;45.568;5.448;2023-02-18T04:26:12;28.90;;;17.90;;
28266;SDS011;15525;45.568;5.448;2023-02-18T04:28:37;30.75;;;18.67;;
28266;SDS011;15525;45.568;5.448;2023-02-18T04:31:03;30.42;;;16.98;;
28266;SDS011;15525;45.568;5.448;2023-02-18T04:33:28;28.50;;;17.05;;
28266;SDS011;15525;45.568;5.448;2023-02-18T04:35:53;28.58;;;16.67;;
28266;SDS011;15525;45.568;5.448;2023-02-18T04:38:19;26.70;;;15.88;;
28266;SDS011;15525;45.568;5.448;2023-02-18T04:40:45;26.70;;;16.48;;
28266;SDS011;15525;45.568;5.448;2023-02-18T04:43:10;29.63;;;16.50;;
28266;SDS011;15525;45.568;5.448;2023-02-18T04:45:35;28.23;;;17.30;;
28266;SDS011;15525;45.568;5.448;2023-02-18T04:48:01;25.83;;;15.75;;
28266;SDS011;15525;45.568;5.448;2023-02-18T04:50:26;27.35;;;16.55;;
28266;SDS011;15525;45.568;5.448;2023-02-18T04:52:52;25.70;;;16.17;;
28266;SDS011;15525;45.568;5.448;2023-02-18T04:55:17;28.17;;;16.23;;
28266;SDS011;15525;45.568;5.448;2023-02-18T04:57:43;25.98;;;15.30;;
28266;SDS011;15525;45.568;5.448;2023-02-18T05:00:09;27.13;;;15.80;;
28266;SDS011;15525;45.568;5.448;2023-02-18T05:02:39;25.55;;;15.85;;
28266;SDS011;15525;45.568;5.448;2023-02-18T05:05:05;25.23;;;15.80;;
28266;SDS011;15525;45.568;5.448;2023-02-18T05:07:30;24.33;;;15.43;;
28266;SDS011;15525;45.568;5.448;2023-02-18T05:09:56;26.65;;;15.65;;
28266;SDS011;15525;45.568;5.448;2023-02-18T05:12:21;27.77;;;16.05;;
28266;SDS011;15525;45.568;5.448;2023-02-18T05:14:46;27.08;;;15.65;;
28266;SDS011;15525;45.568;5.448;2023-02-18T05:17:12;26.05;;;15.55;;
28266;SDS011;15525;45.568;5.448;2023-02-18T05:19:37;24.77;;;15.40;;
28266;SDS011;15525;45.568;5.448;2023-02-18T05:22:03;23.98;;;14.82;;
28266;SDS011;15525;45.568;5.448;2023-02-18T05:24:28;23.90;;;14.45;;
28266;SDS011;15525;45.568;5.448;2023-02-18T05:26:53;24.38;;;14.90;;
28266;SDS011;15525;45.568;5.448;2023-02-18T05:29:19;29.35;;;15.77;;
28266;SDS011;15525;45.568;5.448;2023-02-18T05:31:44;26.80;;;14.88;;
28266;SDS011;15525;45.568;5.448;2023-02-18T05:34:10;25.10;;;15.18;;
28266;SDS011;15525;45.568;5.448;2023-02-18T05:36:35;23.98;;;15.07;;
28266;SDS011;15525;45.568;5.448;2023-02-18T05:39:01;28.35;;;16.35;;
28266;SDS011;15525;45.568;5.448;2023-02-18T05:41:26;27.40;;;15.98;;
28266;SDS011;15525;45.568;5.448;2023-02-18T05:43:52;23.65;;;15.35;;
28266;SDS011;15525;45.568;5.448;2023-02-18T05:46:36;26.40;;;16.00;;
28266;SDS011;15525;45.568;5.448;2023-02-18T05:49:01;25.40;;;14.50;;
28266;SDS011;15525;45.568;5.448;2023-02-18T05:51:27;23.60;;;14.68;;
28266;SDS011;15525;45.568;5.448;2023-02-18T05:53:52;24.98;;;15.15;;
28266;SDS011;15525;45.568;5.448;2023-02-18T05:56:17;23.83;;;14.38;;
28266;SDS011;15525;45.568;5.448;2023-02-18T05:58:43;25.27;;;14.80;;
28266;SDS011;15525;45.568;5.448;2023-02-18T06:01:09;27.50;;;15.48;;
28266;SDS011;15525;45.568;5.448;2023-02-18T06:03:34;24.80;;;15.30;;
28266;SDS011;15525;45.568;5.448;2023-02-18T06:06:00;25.42;;;15.73;;
28266;SDS011;15525;45.568;5.448;2023-02-18T06:08:25;27.13;;;16.05;;
28266;SDS011;15525;45.568;5.448;2023-02-18T06:10:51;30.85;;;17.75;;
28266;SDS011;15525;45.568;5.448;2023-02-18T06:13:16;29.45;;;17.95;;
28266;SDS011;15525;45.568;5.448;2023-02-18T06:15:42;27.73;;;16.88;;
28266;SDS011;15525;45.568;5.448;2023-02-18T06:18:08;28.20;;;17.80;;
28266;SDS011;15525;45.568;5.448;2023-02-18T06:20:33;27.77;;;17.27;;
28266;SDS011;15525;45.568;5.448;2023-02-18T06:22:59;30.02;;;17.17;;
28266;SDS011;15525;45.568;5.448;2023-02-18T06:25:24;30.15;;;18.40;;
28266;SDS011;15525;45.568;5.448;2023-02-18T06:27:49;28.02;;;17.45;;
28266;SDS011;15525;45.568;5.448;2023-02-18T06:30:15;28.90;;;17.02;;
28266;SDS011;15525;45.568;5.448;2023-02-18T06:32:40;28.23;;;16.58;;
28266;SDS011;15525;45.568;5.448;2023-02-18T06:35:06;26.70;;;15.45;;
28266;SDS011;15525;45.568;5.448;2023-02-18T06:37:32;26.50;;;16.08;;
28266;SDS011;15525;45.568;5.448;2023-02-18T06:39:57;26.08;;;14.88;;
28266;SDS011;15525;45.568;5.448;2023-02-18T06:42:22;23.58;;;14.98;;
28266;SDS011;15525;45.568;5.448;2023-02-18T06:44:48;25.33;;;15.38;;
28266;SDS011;15525;45.568;5.448;2023-02-18T06:47:13;26.08;;;14.57;;
28266;SDS011;15525;45.568;5.448;2023-02-18T06:49:39;22.58;;;13.73;;
28266;SDS011;15525;45.568;5.448;2023-02-18T06:52:04;23.38;;;13.43;;
28266;SDS011;15525;45.568;5.448;2023-02-18T06:54:30;23.63;;;13.90;;
28266;SDS011;15525;45.568;5.448;2023-02-18T06:56:55;23.75;;;14.60;;
28266;SDS011;15525;45.568;5.448;2023-02-18T06:59:21;22.17;;;13.73;;
28266;SDS011;15525;45.568;5.448;2023-02-18T07:01:47;24.45;;;13.75;;
28266;SDS011;15525;45.568;5.448;2023-02-18T07:04:12;22.38;;;13.48;;
28266;SDS011;15525;45.568;5.448;2023-02-18T07:06:38;25.50;;;14.45;;
28266;SDS011;15525;45.568;5.448;2023-02-18T07:09:03;20.58;;;13.25;;
28266;SDS011;15525;45.568;5.448;2023-02-18T07:11:29;21.10;;;13.45;;
28266;SDS011;15525;45.568;5.448;2023-02-18T07:13:54;24.42;;;13.93;;
28266;SDS011;15525;45.568;5.448;2023-02-18T07:16:20;21.15;;;13.45;;
28266;SDS011;15525;45.568;5.448;2023-02-18T07:18:45;22.58;;;13.98;;
28266;SDS011;15525;45.568;5.448;2023-02-18T07:21:10;22.40;;;14.15;;
28266;SDS011;15525;45.568;5.448;2023-02-18T07:23:36;24.60;;;14.85;;
28266;SDS011;15525;45.568;5.448;2023-02-18T07:26:06;23.50;;;15.00;;
28266;SDS011;15525;45.568;5.448;2023-02-18T07:28:33;30.13;;;18.30;;
28266;SDS011;15525;45.568;5.448;2023-02-18T07:30:58;31.92;;;18.50;;
28266;SDS011;15525;45.568;5.448;2023-02-18T07:33:24;30.27;;;18.00;;
28266;SDS011;15525;45.568;5.448;2023-02-18T07:35:53;30.58;;;18.08;;
28266;SDS011;15525;45.568;5.448;2023-02-18T07:38:20;28.70;;;17.20;;
28266;SDS011;15525;45.568;5.448;2023-02-18T07:40:45;30.67;;;19.77;;
28266;SDS011;15525;45.568;5.448;2023-02-18T07:43:11;29.88;;;19.52;;
28266;SDS011;15525;45.568;5.448;2023-02-18T07:45:39;30.00;;;18.98;;
28266;SDS011;15525;45.568;5.448;2023-02-18T07:48:05;35.80;;;21.52;;
28266;SDS011;15525;45.568;5.448;2023-02-18T07:50:30;36.75;;;20.10;;
28266;SDS011;15525;45.568;5.448;2023-02-18T07:53:01;31.35;;;19.70;;
28266;SDS011;15525;45.568;5.448;2023-02-18T07:55:27;38.45;;;22.05;;
28266;SDS011;15525;45.568;5.448;2023-02-18T07:58:14;39.45;;;22.52;;
28266;SDS011;15525;45.568;5.448;2023-02-18T08:00:47;40.42;;;23.13;;
28266;SDS011;15525;45.568;5.448;2023-02-18T08:03:14;40.83;;;24.10;;
28266;SDS011;15525;45.568;5.448;2023-02-18T08:05:40;43.97;;;25.25;;
28266;SDS011;15525;45.568;5.448;2023-02-18T08:08:06;45.83;;;26.83;;
28266;SDS011;15525;45.568;5.448;2023-02-18T08:10:31;44.33;;;25.20;;
28266;SDS011;15525;45.568;5.448;2023-02-18T08:12:57;35.90;;;23.25;;
28266;SDS011;15525;45.568;5.448;2023-02-18T08:15:22;42.17;;;24.10;;
28266;SDS011;15525;45.568;5.448;2023-02-18T08:17:48;34.67;;;21.95;;
28266;SDS011;15525;45.568;5.448;2023-02-18T08:20:13;33.58;;;21.05;;
28266;SDS011;15525;45.568;5.448;2023-02-18T08:22:39;37.25;;;21.13;;
28266;SDS011;15525;45.568;5.448;2023-02-18T08:25:04;34.17;;;22.27;;
28266;SDS011;15525;45.568;5.448;2023-02-18T08:27:31;34.45;;;21.05;;
28266;SDS011;15525;45.568;5.448;2023-02-18T08:29:56;36.78;;;21.40;;
28266;SDS011;15525;45.568;5.448;2023-02-18T08:32:22;36.83;;;20.48;;
28266;SDS011;15525;45.568;5.448;2023-02-18T08:34:50;29.08;;;18.20;;
28266;SDS011;15525;45.568;5.448;2023-02-18T08:37:16;29.15;;;18.85;;
28266;SDS011;15525;45.568;5.448;2023-02-18T08:39:41;30.08;;;17.77;;
28266;SDS011;15525;45.568;5.448;2023-02-18T08:42:06;29.08;;;18.20;;
28266;SDS011;15525;45.568;5.448;2023-02-18T08:44:32;30.67;;;18.30;;
28266;SDS011;15525;45.568;5.448;2023-02-18T08:46:57;32.65;;;18.90;;
28266;SDS011;15525;45.568;5.448;2023-02-18T08:49:23;29.15;;;18.63;;
28266;SDS011;15525;45.568;5.448;2023-02-18T08:51:49;33.35;;;19.15;;
28266;SDS011;15525;45.568;5.448;2023-02-18T08:54:15;29.65;;;16.92;;
28266;SDS011;15525;45.568;5.448;2023-02-18T08:56:41;24.30;;;14.90;;
28266;SDS011;15525;45.568;5.448;2023-02-18T08:59:07;23.90;;;15.07;;
28266;SDS011;15525;45.568;5.448;2023-02-18T09:01:32;23.17;;;15.27;;
28266;SDS011;15525;45.568;5.448;2023-02-18T09:03:57;25.85;;;15.90;;
28266;SDS011;15525;45.568;5.448;2023-02-18T09:06:23;28.35;;;16.42;;
28266;SDS011;15525;45.568;5.448;2023-02-18T09:08:48;25.52;;;15.80;;
28266;SDS011;15525;45.568;5.448;2023-02-18T09:11:14;25.45;;;15.85;;
28266;SDS011;15525;45.568;5.448;2023-02-18T09:13:40;25.65;;;16.55;;
28266;SDS011;15525;45.568;5.448;2023-02-18T09:16:06;25.13;;;15.70;;
28266;SDS011;15525;45.568;5.448;2023-02-18T09:18:34;23.38;;;14.55;;
28266;SDS011;15525;45.568;5.448;2023-02-18T09:21:00;25.05;;;14.90;;
28266;SDS011;15525;45.568;5.448;2023-02-18T09:23:27;25.10;;;15.00;;
28266;SDS011;15525;45.568;5.448;2023-02-18T09:25:54;23.10;;;14.63;;
28266;SDS011;15525;45.568;5.448;2023-02-18T09:28:19;26.02;;;15.73;;
28266;SDS011;15525;45.568;5.448;2023-02-18T09:30:45;24.73;;;15.35;;
28266;SDS011;15525;45.568;5.448;2023-02-18T09:33:11;27.33;;;16.20;;
28266;SDS011;15525;45.568;5.448;2023-02-18T09:35:40;25.10;;;15.18;;
28266;SDS011;15525;45.568;5.448;2023-02-18T09:38:10;24.52;;;15.27;;
28266;SDS011;15525;45.568;5.448;2023-02-18T09:40:37;24.25;;;15.73;;
28266;SDS011;15525;45.568;5.448;2023-02-18T09:43:08;25.35;;;16.02;;
28266;SDS011;15525;45.568;5.448;2023-02-18T09:45:58;24.02;;;15.05;;
28266;SDS011;15525;45.568;5.448;2023-02-18T09:48:32;23.77;;;14.65;;
28266;SDS011;15525;45.568;5.448;2023-02-18T09:51:01;22.55;;;14.35;;
28266;SDS011;15525;45.568;5.448;2023-02-18T09:53:27;25.10;;;15.15;;
28266;SDS011;15525;45.568;5.448;2023-02-18T09:55:54;21.08;;;14.15;;
28266;SDS011;15525;45.568;5.448;2023-02-18T09:58:24;24.17;;;14.23;;
28266;SDS011;15525;45.568;5.448;2023-02-18T10:03:44;23.52;;;15.05;;
28266;SDS011;15525;45.568;5.448;2023-02-18T10:06:21;22.13;;;14.45;;
28266;SDS011;15525;45.568;5.448;2023-02-18T10:08:49;31.58;;;17.63;;
28266;SDS011;15525;45.568;5.448;2023-02-18T10:11:39;29.52;;;17.38;;
28266;SDS011;15525;45.568;5.448;2023-02-18T10:14:08;26.88;;;16.55;;
28266;SDS011;15525;45.568;5.448;2023-02-18T10:16:35;24.70;;;15.57;;
28266;SDS011;15525;45.568;5.448;2023-02-18T10:19:06;24.38;;;15.07;;
28266;SDS011;15525;45.568;5.448;2023-02-18T10:21:36;21.50;;;14.25;;
28266;SDS011;15525;45.568;5.448;2023-02-18T10:26:38;23.77;;;14.48;;
28266;SDS011;15525;45.568;5.448;2023-02-18T10:29:08;21.63;;;13.63;;
28266;SDS011;15525;45.568;5.448;2023-02-18T10:31:40;19.52;;;12.70;;
28266;SDS011;15525;45.568;5.448;2023-02-18T10:34:22;20.00;;;12.88;;
28266;SDS011;15525;45.568;5.448;2023-02-18T10:37:15;18.80;;;12.85;;
28266;SDS011;15525;45.568;5.448;2023-02-18T10:40:06;20.38;;;12.68;;
28266;SDS011;15525;45.568;5.448;2023-02-18T10:42:48;20.42;;;13.32;;
28266;SDS011;15525;45.568;5.448;2023-02-18T10:50:47;21.13;;;13.80;;
28266;SDS011;15525;45.568;5.448;2023-02-18T10:53:18;21.52;;;12.95;;
28266;SDS011;15525;45.568;5.448;2023-02-18T10:55:53;21.17;;;13.40;;
28266;SDS011;15525;45.568;5.448;2023-02-18T11:01:06;24.17;;;14.48;;
28266;SDS011;15525;45.568;5.448;2023-02-18T11:03:46;21.05;;;13.45;;
28266;SDS011;15525;45.568;5.448;2023-02-18T11:08:49;20.75;;;13.65;;
28266;SDS011;15525;45.568;5.448;2023-02-18T11:11:23;21.83;;;13.23;;
28266;SDS011;15525;45.568;5.448;2023-02-18T11:13:53;21.42;;;13.45;;
28266;SDS011;15525;45.568;5.448;2023-02-18T11:16:20;14.18;;;9.32;;
28266;SDS011;15525;45.568;5.448;2023-02-18T11:18:47;15.55;;;9.40;;
28266;SDS011;15525;45.568;5.448;2023-02-18T11:23:53;11.25;;;7.68;;
28266;SDS011;15525;45.568;5.448;2023-02-18T11:26:25;9.82;;;7.10;;
28266;SDS011;15525;45.568;5.448;2023-02-18T11:28:56;12.35;;;6.60;;
28266;SDS011;15525;45.568;5.448;2023-02-18T11:31:39;11.55;;;7.65;;
28266;SDS011;15525;45.568;5.448;2023-02-18T11:34:13;11.40;;;7.72;;
28266;SDS011;15525;45.568;5.448;2023-02-18T11:36:42;8.52;;;5.82;;
28266;SDS011;15525;45.568;5.448;2023-02-18T11:41:56;6.03;;;4.30;;
28266;SDS011;15525;45.568;5.448;2023-02-18T11:44:37;7.68;;;4.57;;
28266;SDS011;15525;45.568;5.448;2023-02-18T11:49:37;4.80;;;3.55;;
28266;SDS011;15525;45.568;5.448;2023-02-18T11:55:04;5.15;;;3.10;;
28266;SDS011;15525;45.568;5.448;2023-02-18T11:57:38;6.68;;;3.78;;
28266;SDS011;15525;45.568;5.448;2023-02-18T12:00:27;6.93;;;3.17;;
28266;SDS011;15525;45.568;5.448;2023-02-18T12:03:03;3.70;;;2.88;;
28266;SDS011;15525;45.568;5.448;2023-02-18T12:05:38;4.60;;;3.10;;
28266;SDS011;15525;45.568;5.448;2023-02-18T12:08:16;3.20;;;2.40;;
28266;SDS011;15525;45.568;5.448;2023-02-18T12:10:47;5.72;;;3.60;;
28266;SDS011;15525;45.568;5.448;2023-02-18T12:21:23;2.70;;;2.10;;
28266;SDS011;15525;45.568;5.448;2023-02-18T12:24:02;2.15;;;1.90;;
28266;SDS011;15525;45.568;5.448;2023-02-18T12:29:34;3.92;;;1.70;;
28266;SDS011;15525;45.568;5.448;2023-02-18T12:32:32;2.90;;;1.65;;
28266;SDS011;15525;45.568;5.448;2023-02-18T12:57:41;2.45;;;1.33;;
28266;SDS011;15525;45.568;5.448;2023-02-18T13:09:06;2.42;;;1.88;;
28266;SDS011;15525;45.568;5.448;2023-02-18T13:11:41;3.85;;;2.30;;
28266;SDS011;15525;45.568;5.448;2023-02-18T13:14:24;3.35;;;2.90;;
28266;SDS011;15525;45.568;5.448;2023-02-18T13:16:56;4.57;;;3.00;;
28266;SDS011;15525;45.568;5.448;2023-02-18T13:19:25;3.40;;;2.78;;
28266;SDS011;15525;45.568;5.448;2023-02-18T13:21:58;3.70;;;3.00;;
28266;SDS011;15525;45.568;5.448;2023-02-18T13:24:35;5.30;;;3.50;;
28266;SDS011;15525;45.568;5.448;2023-02-18T13:30:09;5.25;;;3.15;;
28266;SDS011;15525;45.568;5.448;2023-02-18T13:40:45;3.95;;;3.08;;
28266;SDS011;15525;45.568;5.448;2023-02-18T13:43:33;4.40;;;2.97;;
28266;SDS011;15525;45.568;5.448;2023-02-18T13:46:02;4.13;;;2.90;;
28266;SDS011;15525;45.568;5.448;2023-02-18T13:51:10;10.52;;;3.40;;
28266;SDS011;15525;45.568;5.448;2023-02-18T13:53:38;3.60;;;2.88;;
28266;SDS011;15525;45.568;5.448;2023-02-18T13:56:18;3.05;;;2.65;;
28266;SDS011;15525;45.568;5.448;2023-02-18T13:58:50;5.35;;;3.25;;
28266;SDS011;15525;45.568;5.448;2023-02-18T14:01:32;3.90;;;3.47;;
28266;SDS011;15525;45.568;5.448;2023-02-18T14:06:32;4.70;;;3.40;;
28266;SDS011;15525;45.568;5.448;2023-02-18T14:09:45;4.00;;;3.10;;
28266;SDS011;15525;45.568;5.448;2023-02-18T14:11:52;3.65;;;3.00;;
28266;SDS011;15525;45.568;5.448;2023-02-18T14:22:43;4.78;;;3.20;;
28266;SDS011;15525;45.568;5.448;2023-02-18T14:27:36;3.30;;;2.67;;
28266;SDS011;15525;45.568;5.448;2023-02-18T14:30:04;4.38;;;2.72;;
28266;SDS011;15525;45.568;5.448;2023-02-18T14:32:51;2.63;;;2.25;;
28266;SDS011;15525;45.568;5.448;2023-02-18T14:38:14;2.70;;;2.40;;
28266;SDS011;15525;45.568;5.448;2023-02-18T14:51:46;2.33;;;1.92;;
28266;SDS011;15525;45.568;5.448;2023-02-18T14:54:14;3.50;;;2.60;;
28266;SDS011;15525;45.568;5.448;2023-02-18T14:59:19;2.78;;;2.15;;
28266;SDS011;15525;45.568;5.448;2023-02-18T15:01:47;3.28;;;2.17;;
28266;SDS011;15525;45.568;5.448;2023-02-18T15:04:13;2.08;;;1.88;;
28266;SDS011;15525;45.568;5.448;2023-02-18T15:06:40;3.90;;;2.08;;
28266;SDS011;15525;45.568;5.448;2023-02-18T15:09:19;2.90;;;2.25;;
28266;SDS011;15525;45.568;5.448;2023-02-18T15:11:50;2.83;;;2.30;;
28266;SDS011;15525;45.568;5.448;2023-02-18T15:14:22;3.70;;;2.15;;
28266;SDS011;15525;45.568;5.448;2023-02-18T15:16:50;2.50;;;2.05;;
28266;SDS011;15525;45.568;5.448;2023-02-18T15:19:17;3.22;;;2.40;;
28266;SDS011;15525;45.568;5.448;2023-02-18T15:21:49;2.85;;;1.98;;
28266;SDS011;15525;45.568;5.448;2023-02-18T15:24:30;2.50;;;2.10;;
28266;SDS011;15525;45.568;5.448;2023-02-18T15:26:58;3.92;;;2.30;;
28266;SDS011;15525;45.568;5.448;2023-02-18T15:29:32;2.30;;;2.10;;
28266;SDS011;15525;45.568;5.448;2023-02-18T15:31:59;3.03;;;2.30;;
28266;SDS011;15525;45.568;5.448;2023-02-18T15:34:37;3.53;;;2.22;;
28266;SDS011;15525;45.568;5.448;2023-02-18T15:37:04;2.58;;;2.33;;
28266;SDS011;15525;45.568;5.448;2023-02-18T15:39:31;2.40;;;2.10;;
28266;SDS011;15525;45.568;5.448;2023-02-18T15:42:00;2.78;;;2.20;;
28266;SDS011;15525;45.568;5.448;2023-02-18T15:44:30;3.88;;;2.30;;
28266;SDS011;15525;45.568;5.448;2023-02-18T15:46:59;3.13;;;2.50;;
28266;SDS011;15525;45.568;5.448;2023-02-18T15:49:26;3.65;;;2.35;;
28266;SDS011;15525;45.568;5.448;2023-02-18T15:51:54;3.13;;;2.30;;
28266;SDS011;15525;45.568;5.448;2023-02-18T15:54:22;3.58;;;2.60;;
28266;SDS011;15525;45.568;5.448;2023-02-18T15:56:48;3.42;;;2.53;;
28266;SDS011;15525;45.568;5.448;2023-02-18T15:59:18;3.15;;;1.95;;
28266;SDS011;15525;45.568;5.448;2023-02-18T16:01:52;5.50;;;2.15;;
28266;SDS011;15525;45.568;5.448;2023-02-18T16:04:27;3.15;;;2.15;;
28266;SDS011;15525;45.568;5.448;2023-02-18T16:06:55;2.20;;;2.00;;
28266;SDS011;15525;45.568;5.448;2023-02-18T16:09:22;3.47;;;2.00;;
28266;SDS011;15525;45.568;5.448;2023-02-18T16:11:55;4.22;;;2.25;;
28266;SDS011;15525;45.568;5.448;2023-02-18T16:14:45;2.33;;;1.88;;
28266;SDS011;15525;45.568;5.448;2023-02-18T16:17:16;2.17;;;1.92;;
28266;SDS011;15525;45.568;5.448;2023-02-18T16:22:26;3.70;;;2.00;;
28266;SDS011;15525;45.568;5.448;2023-02-18T16:24:58;2.47;;;2.10;;
28266;SDS011;15525;45.568;5.448;2023-02-18T16:27:34;2.72;;;2.10;;
28266;SDS011;15525;45.568;5.448;2023-02-18T16:30:05;3.70;;;2.83;;
28266;SDS011;15525;45.568;5.448;2023-02-18T16:32:40;5.22;;;2.80;;
28266;SDS011;15525;45.568;5.448;2023-02-18T16:35:05;5.07;;;2.47;;
28266;SDS011;15525;45.568;5.448;2023-02-18T16:37:31;3.55;;;2.50;;
28266;SDS011;15525;45.568;5.448;2023-02-18T16:40:02;3.67;;;2.60;;
28266;SDS011;15525;45.568;5.448;2023-02-18T16:42:29;4.65;;;2.60;;
28266;SDS011;15525;45.568;5.448;2023-02-18T16:44:54;3.72;;;2.63;;
28266;SDS011;15525;45.568;5.448;2023-02-18T16:47:19;5.22;;;2.55;;
28266;SDS011;15525;45.568;5.448;2023-02-18T16:49:47;3.33;;;2.60;;
28266;SDS011;15525;45.568;5.448;2023-02-18T16:52:15;3.10;;;2.42;;
28266;SDS011;15525;45.568;5.448;2023-02-18T16:54:42;4.35;;;2.65;;
28266;SDS011;15525;45.568;5.448;2023-02-18T16:57:08;9.30;;;8.30;;
28266;SDS011;15525;45.568;5.448;2023-02-18T16:59:34;7.65;;;3.83;;
28266;SDS011;15525;45.568;5.448;2023-02-18T17:02:00;3.53;;;2.70;;
28266;SDS011;15525;45.568;5.448;2023-02-18T17:04:25;4.82;;;2.85;;
28266;SDS011;15525;45.568;5.448;2023-02-18T17:06:51;6.95;;;3.33;;
28266;SDS011;15525;45.568;5.448;2023-02-18T17:09:18;6.43;;;3.53;;
28266;SDS011;15525;45.568;5.448;2023-02-18T17:11:46;5.65;;;3.63;;
28266;SDS011;15525;45.568;5.448;2023-02-18T17:14:14;7.15;;;4.00;;
28266;SDS011;15525;45.568;5.448;2023-02-18T17:16:45;6.60;;;3.67;;
28266;SDS011;15525;45.568;5.448;2023-02-18T17:19:15;10.43;;;4.60;;
28266;SDS011;15525;45.568;5.448;2023-02-18T17:21:41;9.93;;;4.88;;